Time;durP1;ratioP1;P1;durP2;ratioP2;P2;SDS_P1;SDS_P2;PMS_P1;PMS_P2;Temp;Humidity;BMP_temperature;BMP_pressure;BME280_temperature;BME280_humidity;BME280_pressure;Samples;Min_cycle;Max_cycle;Signal;HPM_P1;HPM_P2
2023/01/05 00:01:26;;;;;;;2.65;1.58;;;;;;;9.10;100.00;99748.59;5093215;28;20078;-78
2023/01/05 00:03:55;;;;;;;2.80;1.30;;;;;;;9.13;100.00;99728.44;5092638;28;20468;-79
2023/01/05 00:06:23;;;;;;;1.48;1.25;;;;;;;9.19;100.00;99722.81;5125544;27;20024;-78
2023/01/05 00:08:59;;;;;;;1.63;1.25;;;;;;;9.29;100.00;99726.31;5091628;28;20044;-79
2023/01/05 00:22:47;;;;;;;1.27;0.88;;;;;;;9.50;100.00;99687.94;5092191;28;20043;-80
2023/01/05 00:25:22;;;;;;;0.47;0.45;;;;;;;9.49;100.00;99692.09;5092836;28;20113;-78
2023/01/05 00:27:50;;;;;;;1.27;0.73;;;;;;;9.50;100.00;99685.88;5092978;28;20024;-78
2023/01/05 00:30:20;;;;;;;1.00;0.70;;;;;;;9.41;100.00;99688.09;5093279;28;20020;-79
2023/01/05 00:32:46;;;;;;;0.65;0.65;;;;;;;9.40;100.00;99687.28;5091810;28;20043;-79
2023/01/05 00:35:14;;;;;;;0.45;0.45;;;;;;;9.46;100.00;99687.38;5091742;28;20024;-79
2023/01/05 00:37:41;;;;;;;0.50;0.50;;;;;;;9.38;100.00;99683.41;5076101;28;20020;-80
2023/01/05 00:40:13;;;;;;;0.85;0.60;;;;;;;9.33;100.00;99690.59;5093537;28;20016;-79
2023/01/05 00:42:40;;;;;;;0.70;0.68;;;;;;;9.23;100.00;99652.91;5076141;28;20032;-79
2023/01/05 00:45:09;;;;;;;1.05;0.60;;;;;;;9.38;100.00;99672.00;5092909;28;20050;-78
2023/01/05 00:47:36;;;;;;;1.60;0.70;;;;;;;9.34;100.00;99669.34;5093583;28;20024;-78
2023/01/05 00:50:04;;;;;;;1.02;0.60;;;;;;;9.39;100.00;99682.91;5093621;28;20043;-78
2023/01/05 00:52:30;;;;;;;1.00;0.80;;;;;;;9.40;100.00;99670.19;5092950;28;20350;-78
2023/01/05 00:54:57;;;;;;;1.20;0.70;;;;;;;9.40;100.00;99663.69;5092603;28;20099;-78
2023/01/05 00:57:23;;;;;;;0.47;0.47;;;;;;;9.42;100.00;99664.00;5093596;28;20120;-79
2023/01/05 00:59:50;;;;;;;0.70;0.50;;;;;;;9.53;100.00;99658.44;5093665;28;20024;-78
2023/01/05 01:02:16;;;;;;;0.77;0.55;;;;;;;9.48;100.00;99656.28;5075240;28;20024;-78
2023/01/05 01:04:42;;;;;;;0.88;0.50;;;;;;;9.45;100.00;99666.63;5093508;28;20055;-79
2023/01/05 01:07:08;;;;;;;1.35;0.38;;;;;;;9.39;100.00;99660.09;5092032;28;20473;-79
2023/01/05 01:09:36;;;;;;;0.88;0.50;;;;;;;9.29;100.00;99660.72;5093294;28;20063;-79
2023/01/05 01:12:10;;;;;;;1.23;0.50;;;;;;;9.22;100.00;99650.53;5092930;28;20049;-78
2023/01/05 01:14:37;;;;;;;1.33;0.50;;;;;;;9.22;100.00;99661.94;5093424;28;20024;-78
2023/01/05 01:17:02;;;;;;;1.02;0.60;;;;;;;9.27;100.00;99666.94;5091999;28;20028;-78
2023/01/05 01:19:28;;;;;;;1.85;0.60;;;;;;;9.32;100.00;99645.47;5093655;28;20473;-77
2023/01/05 01:21:55;;;;;;;0.95;0.60;;;;;;;9.29;100.00;99666.44;5108736;28;20518;-78
2023/01/05 01:24:28;;;;;;;0.60;0.50;;;;;;;9.25;100.00;99660.94;5075190;28;20032;-79
2023/01/05 01:26:56;;;;;;;1.25;0.43;;;;;;;9.18;100.00;99652.81;5093230;28;20030;-79
2023/01/05 01:29:30;;;;;;;1.30;0.60;;;;;;;9.35;100.00;99653.78;5098219;28;20043;-78
2023/01/05 01:31:57;;;;;;;1.67;0.60;;;;;;;9.51;100.00;99658.91;5101731;28;20039;-79
2023/01/05 01:34:23;;;;;;;0.52;0.35;;;;;;;9.53;100.00;99649.88;5101603;28;20094;-78
2023/01/05 01:36:57;;;;;;;1.00;0.52;;;;;;;9.61;100.00;99654.63;5082068;28;20065;-78
2023/01/05 01:39:23;;;;;;;2.03;0.40;;;;;;;9.65;100.00;99654.38;5098535;28;20038;-78
2023/01/05 01:41:49;;;;;;;0.90;0.50;;;;;;;9.70;100.00;99656.53;5096559;28;20040;-78
2023/01/05 01:44:53;;;;;;;1.63;0.50;;;;;;;9.72;100.00;99656.03;5097016;28;20032;-77
2023/01/05 01:47:29;;;;;;;1.83;0.88;;;;;;;9.78;100.00;99654.84;5056861;28;20108;-77
2023/01/05 01:49:57;;;;;;;1.95;0.55;;;;;;;9.84;100.00;99649.19;5056543;28;20050;-77
2023/01/05 01:52:32;;;;;;;1.80;0.57;;;;;;;9.80;100.00;99645.75;5054925;28;20467;-78
2023/01/05 01:55:07;;;;;;;1.27;0.77;;;;;;;9.71;100.00;99643.81;5056527;28;20104;-78
2023/01/05 01:57:34;;;;;;;5.78;0.82;;;;;;;9.65;100.00;99634.41;5055944;28;20017;-77
2023/01/05 02:00:03;;;;;;;2.35;0.75;;;;;;;9.68;100.00;99637.06;5053685;28;20363;-78
2023/01/05 02:02:29;;;;;;;2.45;1.15;;;;;;;9.70;100.00;99639.41;5054703;28;20032;-79
2023/01/05 02:04:58;;;;;;;2.33;1.00;;;;;;;9.80;100.00;99640.84;5070240;28;20461;-78
2023/01/05 02:07:25;;;;;;;3.35;0.93;;;;;;;9.88;100.00;99636.25;5037018;28;20072;-78
2023/01/05 02:09:50;;;;;;;1.23;0.85;;;;;;;9.86;100.00;99626.63;5053433;28;20477;-79
2023/01/05 02:12:28;;;;;;;1.73;1.00;;;;;;;9.88;100.00;99626.91;5036793;28;20075;-79
2023/01/05 02:15:01;;;;;;;4.55;0.88;;;;;;;9.84;100.00;99632.06;5053513;28;20025;-77
2023/01/05 02:17:43;;;;;;;3.45;1.13;;;;;;;9.70;100.00;99620.22;5054929;28;20045;-78
2023/01/05 02:20:27;;;;;;;4.45;1.00;;;;;;;9.71;100.00;99635.28;5054860;28;20029;-78
2023/01/05 02:23:11;;;;;;;5.47;0.98;;;;;;;9.64;100.00;99622.22;5055014;28;20025;-77
2023/01/05 02:25:45;;;;;;;3.70;0.82;;;;;;;9.67;100.00;99626.16;5036516;28;20025;-78
2023/01/05 02:28:35;;;;;;;2.38;0.90;;;;;;;9.61;100.00;99623.25;5053411;28;20029;-77
2023/01/05 02:31:20;;;;;;;3.30;1.05;;;;;;;9.68;100.00;99611.41;5054022;28;20029;-77
2023/01/05 02:34:23;;;;;;;3.50;0.85;;;;;;;9.72;100.00;99619.72;5054537;28;20155;-78
2023/01/05 02:36:57;;;;;;;4.90;0.73;;;;;;;9.74;100.00;99616.41;5055514;28;20489;-77
2023/01/05 02:39:45;;;;;;;1.45;0.88;;;;;;;9.83;100.00;99593.41;5053448;28;20063;-77
2023/01/05 02:42:23;;;;;;;6.18;1.45;;;;;;;9.77;100.00;99604.75;5055269;28;20033;-79
2023/01/05 02:44:50;;;;;;;4.35;1.02;;;;;;;9.78;100.00;99594.91;5056008;28;20075;-77
2023/01/05 02:47:29;;;;;;;3.22;0.68;;;;;;;9.79;100.00;99601.41;5094514;28;20050;-79
2023/01/05 02:49:59;;;;;;;1.92;0.82;;;;;;;9.75;100.00;99597.97;5095485;28;20032;-79
2023/01/05 02:52:25;;;;;;;4.28;1.10;;;;;;;9.74;100.00;99605.78;5094172;28;20060;-79
2023/01/05 02:54:56;;;;;;;4.90;1.10;;;;;;;9.77;100.00;99609.69;5076925;28;20469;-77
2023/01/05 02:57:45;;;;;;;1.23;0.60;;;;;;;9.66;100.00;99596.06;5076906;28;20103;-79
2023/01/05 03:00:18;;;;;;;3.53;0.80;;;;;;;9.70;100.00;99600.25;5079487;28;20028;-79
2023/01/05 03:03:25;;;;;;;2.85;0.90;;;;;;;9.66;100.00;99611.09;5094054;28;20024;-80
2023/01/05 03:06:03;;;;;;;3.08;1.52;;;;;;;9.66;100.00;99608.25;5093861;28;20043;-79
2023/01/05 03:08:31;;;;;;;4.38;1.38;;;;;;;9.66;100.00;99608.25;5093799;28;20381;-79
2023/01/05 03:14:34;;;;;;;3.53;1.65;;;;;;;9.72;100.00;99618.94;5094339;28;20086;-78
2023/01/05 03:17:00;;;;;;;4.20;0.98;;;;;;;9.78;100.00;99612.03;5032679;28;20053;-79
2023/01/05 03:19:39;;;;;;;2.50;0.80;;;;;;;9.77;100.00;99613.31;5082214;28;20381;-78
2023/01/05 03:37:22;;;;;;;1.08;0.80;;;;;;;9.65;100.00;99620.94;5095129;28;20070;-79
2023/01/05 03:39:47;;;;;;;3.75;1.00;;;;;;;9.69;100.00;99620.75;5093554;28;20024;-78
2023/01/05 03:42:14;;;;;;;5.40;0.95;;;;;;;9.69;100.00;99615.78;5093201;28;20020;-78
2023/01/05 03:44:44;;;;;;;1.50;0.60;;;;;;;9.66;100.00;99624.59;5093421;28;20023;-78
2023/01/05 03:47:10;;;;;;;1.95;1.20;;;;;;;9.69;100.00;99615.78;5075883;28;20055;-78
2023/01/05 03:49:36;;;;;;;1.50;0.98;;;;;;;9.70;100.00;99623.06;5076134;28;20051;-79
2023/01/05 03:52:03;;;;;;;3.17;0.90;;;;;;;9.68;100.00;99614.25;5094225;28;20024;-79
2023/01/05 03:54:37;;;;;;;1.45;0.80;;;;;;;9.74;100.00;99616.41;5092964;28;20058;-79
2023/01/05 03:57:03;;;;;;;3.15;1.20;;;;;;;9.65;100.00;99623.00;5094063;28;20334;-78
2023/01/05 03:59:29;;;;;;;6.18;0.95;;;;;;;9.59;100.00;99608.69;5094214;28;20044;-78
2023/01/05 04:01:55;;;;;;;7.15;1.17;;;;;;;9.58;100.00;99617.78;5094073;28;20384;-78
2023/01/05 04:04:20;;;;;;;4.78;1.13;;;;;;;9.61;100.00;99608.97;5094050;28;20081;-77
2023/01/05 04:06:46;;;;;;;3.10;0.80;;;;;;;9.51;100.00;99632.47;5076066;28;20524;-77
2023/01/05 04:09:13;;;;;;;2.85;1.05;;;;;;;9.51;100.00;99626.75;5093882;28;20357;-77
2023/01/05 04:11:40;;;;;;;2.65;1.27;;;;;;;9.39;100.00;99642.19;5092735;28;20474;-78
2023/01/05 04:14:07;;;;;;;2.30;0.95;;;;;;;9.35;100.00;99630.22;5093777;28;20314;-77
2023/01/05 04:16:33;;;;;;;4.82;1.00;;;;;;;9.38;100.00;99632.06;5094136;28;20016;-76
2023/01/05 04:19:00;;;;;;;2.47;0.85;;;;;;;9.40;100.00;99638.03;5094009;28;20039;-78
2023/01/05 04:21:25;;;;;;;4.38;1.00;;;;;;;9.43;100.00;99634.19;5093966;28;20357;-79
2023/01/05 04:23:51;;;;;;;3.70;1.15;;;;;;;9.46;100.00;99641.75;5093998;28;20491;-79
2023/01/05 04:26:17;;;;;;;5.53;1.10;;;;;;;9.46;100.00;99651.09;5075402;28;20499;-79
2023/01/05 04:28:43;;;;;;;3.53;0.98;;;;;;;9.45;100.00;99649.50;5092691;28;20020;-79
2023/01/05 04:31:11;;;;;;;4.05;2.22;;;;;;;9.35;100.00;99653.03;5094334;28;20028;-79
2023/01/05 04:33:38;;;;;;;4.43;0.90;;;;;;;9.19;100.00;99658.03;5094004;28;20117;-78
2023/01/05 04:36:06;;;;;;;3.13;1.10;;;;;;;8.99;100.00;99663.72;5093542;28;20414;-78
2023/01/05 04:38:33;;;;;;;5.20;1.40;;;;;;;8.88;100.00;99665.63;5093683;28;20423;-78
2023/01/05 04:40:58;;;;;;;8.93;1.85;;;;;;;8.81;100.00;99683.91;5093064;28;20036;-78
2023/01/05 04:43:24;;;;;;;2.10;0.90;;;;;;;8.71;100.00;99682.47;5093565;28;20079;-78
2023/01/05 04:45:49;;;;;;;6.72;1.10;;;;;;;8.57;100.00;99684.09;5093154;28;20044;-78
2023/01/05 04:48:16;;;;;;;2.67;1.15;;;;;;;8.51;100.00;99671.81;5093499;28;20492;-79
2023/01/05 04:50:42;;;;;;;3.45;1.25;;;;;;;8.42;100.00;99680.47;5093557;28;20024;-77
2023/01/05 04:53:08;;;;;;;2.38;0.90;;;;;;;8.43;100.00;99698.34;5092171;28;20119;-77
2023/01/05 04:55:35;;;;;;;2.60;1.05;;;;;;;8.33;100.00;99687.09;5093561;28;20358;-77
2023/01/05 04:58:01;;;;;;;4.22;0.98;;;;;;;8.31;100.00;99675.38;5093766;28;20016;-79
2023/01/05 05:00:29;;;;;;;3.60;0.90;;;;;;;8.22;100.00;99692.59;5093608;28;20027;-78
2023/01/05 05:02:56;;;;;;;2.72;0.90;;;;;;;8.20;100.00;99694.38;5094316;28;20016;-78
2023/01/05 05:05:22;;;;;;;1.23;0.90;;;;;;;8.04;100.00;99689.13;5097232;28;20016;-76
2023/01/05 05:07:48;;;;;;;1.90;0.60;;;;;;;7.82;100.00;99687.44;5095997;28;20032;-77
2023/01/05 05:10:16;;;;;;;2.38;0.60;;;;;;;7.67;100.00;99700.84;5096951;28;20492;-78
2023/01/05 05:12:44;;;;;;;1.38;0.70;;;;;;;7.51;100.00;99699.28;5096006;28;20031;-79
2023/01/05 05:15:11;;;;;;;0.80;0.70;;;;;;;7.37;100.00;99702.84;5097223;28;20106;-78
2023/01/05 05:17:36;;;;;;;2.08;0.73;;;;;;;7.27;100.00;99709.91;5095879;28;20020;-78
2023/01/05 05:20:04;;;;;;;2.15;0.93;;;;;;;7.04;100.00;99679.44;5096612;28;20082;-77
2023/01/05 05:22:31;;;;;;;1.17;0.55;;;;;;;7.02;100.00;99681.97;5097039;28;20038;-78
2023/01/05 05:24:58;;;;;;;3.65;1.00;;;;;;;6.99;100.00;99692.25;5096519;28;20119;-78
2023/01/05 05:27:24;;;;;;;4.70;1.08;;;;;;;6.98;100.00;99692.72;5079789;28;20052;-78
2023/01/05 05:29:50;;;;;;;3.95;1.27;;;;;;;6.99;100.00;99702.81;5098920;28;20020;-79
2023/01/05 05:32:15;;;;;;;2.97;0.90;;;;;;;6.98;100.00;99704.06;5095954;28;20016;-78
2023/01/05 05:34:41;;;;;;;1.50;0.70;;;;;;;6.98;100.00;99716.22;5097300;28;20453;-78
2023/01/05 05:37:08;;;;;;;3.47;0.95;;;;;;;6.98;100.00;99704.06;5097360;28;20038;-77
2023/01/05 05:39:33;;;;;;;3.45;1.33;;;;;;;6.93;100.00;99710.44;5096837;28;20085;-76
2023/01/05 05:42:00;;;;;;;1.30;0.90;;;;;;;7.02;100.00;99716.84;5099533;28;20024;-78
2023/01/05 05:44:27;;;;;;;3.78;0.95;;;;;;;7.02;100.00;99710.38;5103276;28;20024;-78
2023/01/05 05:46:53;;;;;;;6.68;1.58;;;;;;;7.01;100.00;99714.50;5098787;28;20040;-80
2023/01/05 05:49:19;;;;;;;4.50;1.35;;;;;;;7.05;100.00;99717.94;5099902;28;20035;-76
2023/01/05 05:51:44;;;;;;;2.17;0.80;;;;;;;7.02;100.00;99708.34;5097454;28;20388;-80
2023/01/05 05:54:11;;;;;;;4.03;1.00;;;;;;;7.07;100.00;99712.56;5078565;28;20137;-78
2023/01/05 05:56:37;;;;;;;1.85;0.63;;;;;;;7.14;100.00;99712.19;5096386;28;20066;-79
2023/01/05 05:59:03;;;;;;;7.15;1.10;;;;;;;7.12;100.00;99725.31;5094203;28;20369;-80
2023/01/05 06:01:29;;;;;;;3.20;0.98;;;;;;;7.09;100.00;99727.06;5095179;28;20027;-78
2023/01/05 06:03:54;;;;;;;3.30;0.80;;;;;;;7.12;100.00;99731.00;5095134;28;20119;-82
2023/01/05 06:06:32;;;;;;;1.67;0.70;;;;;;;7.04;100.00;99716.34;5095734;28;20469;-80
2023/01/05 06:09:04;;;;;;;2.47;0.50;;;;;;;7.15;100.00;99727.19;5095604;28;20024;-84
2023/01/05 06:11:30;;;;;;;1.63;0.55;;;;;;;7.20;100.00;99721.63;5095315;28;20069;-82
2023/01/05 06:13:57;;;;;;;2.08;0.70;;;;;;;7.17;100.00;99724.66;5093586;28;20040;-78
2023/01/05 06:16:24;;;;;;;0.90;0.55;;;;;;;7.23;100.00;99717.78;5096633;28;20346;-79
2023/01/05 06:18:50;;;;;;;1.88;0.65;;;;;;;7.29;100.00;99732.13;5095117;28;20084;-81
2023/01/05 06:21:16;;;;;;;1.92;0.50;;;;;;;7.34;100.00;99720.88;5094744;28;20427;-79
2023/01/05 06:23:43;;;;;;;3.65;0.90;;;;;;;7.32;100.00;99726.28;5095745;28;20056;-78
2023/01/05 06:26:09;;;;;;;1.90;0.60;;;;;;;7.31;100.00;99719.03;5095786;28;20099;-76
2023/01/05 06:28:35;;;;;;;1.52;0.60;;;;;;;7.31;100.00;99719.03;5094731;28;20043;-77
2023/01/05 06:31:02;;;;;;;1.63;0.60;;;;;;;7.35;100.00;99718.84;5094689;28;20465;-77
2023/01/05 06:33:28;;;;;;;2.60;0.70;;;;;;;7.37;100.00;99713.47;5095902;28;20035;-79
2023/01/05 06:35:57;;;;;;;4.75;0.85;;;;;;;7.46;100.00;99710.53;5090553;28;20032;-79
2023/01/05 06:38:24;;;;;;;4.03;0.90;;;;;;;7.54;100.00;99723.88;5094266;28;20042;-78
2023/01/05 06:40:50;;;;;;;3.85;1.10;;;;;;;7.53;100.00;99708.09;5093642;28;20035;-78
2023/01/05 06:43:23;;;;;;;5.00;1.10;;;;;;;7.54;100.00;99715.34;5092775;28;20499;-79
2023/01/05 06:45:49;;;;;;;3.65;1.10;;;;;;;7.61;100.00;99717.03;5092816;28;20331;-78
2023/01/05 06:48:15;;;;;;;5.25;1.35;;;;;;;7.69;100.00;99714.59;5092580;28;20046;-78
2023/01/05 06:50:41;;;;;;;4.03;1.67;;;;;;;7.71;100.00;99717.75;5094117;28;20031;-78
2023/01/05 06:53:06;;;;;;;4.43;1.73;;;;;;;7.62;100.00;99701.53;5092762;28;20396;-78
2023/01/05 06:55:32;;;;;;;4.22;1.10;;;;;;;7.84;100.00;99726.78;5092690;28;20028;-79
2023/01/05 06:57:57;;;;;;;5.60;1.20;;;;;;;7.81;100.00;99716.41;5093921;28;20065;-79
2023/01/05 07:00:26;;;;;;;5.82;1.73;;;;;;;7.82;100.00;99698.81;5092482;28;20438;-78
2023/01/05 07:02:51;;;;;;;4.07;1.25;;;;;;;7.94;100.00;99709.16;5094391;28;20442;-78
2023/01/05 07:05:18;;;;;;;3.38;1.08;;;;;;;7.90;100.00;99700.03;5094665;28;20047;-78
2023/01/05 07:07:44;;;;;;;3.95;1.30;;;;;;;7.99;100.00;99721.91;5094938;28;20028;-79
2023/01/05 07:10:09;;;;;;;2.80;1.20;;;;;;;7.98;100.00;99720.31;5076629;28;20070;-79
2023/01/05 07:12:36;;;;;;;4.88;1.10;;;;;;;8.04;100.00;99721.22;5093525;28;20067;-79
2023/01/05 07:15:04;;;;;;;2.78;1.33;;;;;;;8.01;100.00;99715.72;5093477;28;20434;-79
2023/01/05 07:17:31;;;;;;;3.72;0.90;;;;;;;8.05;100.00;99716.31;5093153;28;20016;-79
2023/01/05 07:19:57;;;;;;;2.25;1.33;;;;;;;8.14;100.00;99727.59;5092863;28;20038;-79
2023/01/05 07:22:22;;;;;;;2.92;1.05;;;;;;;8.12;100.00;99730.13;5092906;28;20028;-79
2023/01/05 07:24:47;;;;;;;2.00;0.80;;;;;;;8.20;100.00;99725.66;5094544;28;20024;-79
2023/01/05 07:27:13;;;;;;;4.90;1.10;;;;;;;8.26;100.00;99744.41;5075763;28;20020;-79
2023/01/05 07:29:38;;;;;;;4.82;1.40;;;;;;;8.27;100.00;99730.94;5094429;28;20065;-79
2023/01/05 07:32:04;;;;;;;2.40;1.00;;;;;;;8.26;100.00;99715.94;5094849;28;20114;-79
2023/01/05 07:34:29;;;;;;;2.92;1.27;;;;;;;8.28;100.00;99733.31;5093096;28;20047;-79
2023/01/05 07:36:55;;;;;;;4.43;1.20;;;;;;;8.31;100.00;99732.31;5076460;28;20030;-79
2023/01/05 07:39:20;;;;;;;5.95;1.58;;;;;;;8.33;100.00;99732.63;5092968;28;20212;-79
2023/01/05 07:41:45;;;;;;;6.32;1.95;;;;;;;8.41;100.00;99735.84;5094160;28;20026;-79
2023/01/05 07:44:11;;;;;;;5.70;1.70;;;;;;;8.44;100.00;99734.88;5092689;28;20023;-79
2023/01/05 07:46:36;;;;;;;5.22;1.48;;;;;;;8.38;100.00;99731.16;5093914;28;20048;-78
2023/01/05 07:49:02;;;;;;;5.57;1.58;;;;;;;8.39;100.00;99744.91;5094399;28;20028;-78
2023/01/05 07:51:28;;;;;;;6.50;1.52;;;;;;;8.49;100.00;99736.25;5092902;28;20024;-79
2023/01/05 07:53:54;;;;;;;4.43;1.58;;;;;;;8.51;100.00;99742.25;5094520;28;20035;-79
2023/01/05 07:56:19;;;;;;;5.95;1.88;;;;;;;8.49;100.00;99747.63;5093970;28;20039;-78
2023/01/05 07:58:45;;;;;;;4.18;1.40;;;;;;;8.51;100.00;99745.84;5093934;28;20354;-77
2023/01/05 08:01:12;;;;;;;7.88;1.83;;;;;;;8.52;100.00;99729.56;5093879;28;20140;-78
2023/01/05 08:03:38;;;;;;;4.43;1.67;;;;;;;8.59;100.00;99747.03;5092412;28;20035;-79
2023/01/05 08:06:14;;;;;;;5.78;2.25;;;;;;;8.62;100.00;99746.03;5075755;28;20019;-79
2023/01/05 08:08:40;;;;;;;4.72;1.45;;;;;;;8.60;100.00;99756.38;5092611;28;20111;-78
2023/01/05 08:11:26;;;;;;;8.82;1.85;;;;;;;8.70;100.00;99750.06;5093765;28;20540;-78
2023/01/05 08:13:58;;;;;;;5.80;1.88;;;;;;;8.76;100.00;99733.03;5094073;28;20035;-90
2023/01/05 08:16:25;;;;;;;6.63;1.60;;;;;;;8.91;100.00;99753.75;5098288;28;20108;-81
2023/01/05 08:18:50;;;;;;;7.03;2.17;;;;;;;9.00;100.00;99745.06;5076896;28;20028;-77
2023/01/05 08:21:16;;;;;;;7.53;2.08;;;;;;;9.00;100.00;99742.22;5092001;28;20031;-81
2023/01/05 08:23:42;;;;;;;6.55;2.00;;;;;;;9.04;100.00;99747.72;5075127;28;20035;-77
2023/01/05 08:26:13;;;;;;;11.35;2.10;;;;;;;9.05;100.00;99749.31;5090672;28;20502;-77
2023/01/05 08:28:39;;;;;;;7.05;1.27;;;;;;;8.99;100.00;99749.22;5094187;28;20031;-77
2023/01/05 08:31:22;;;;;;;11.18;2.40;;;;;;;8.97;100.00;99745.28;5092440;28;20024;-78
2023/01/05 08:33:48;;;;;;;4.50;1.50;;;;;;;9.04;100.00;99747.72;5093583;28;20059;-78
2023/01/05 08:36:18;;;;;;;9.95;3.28;;;;;;;9.00;100.00;99762.16;5058425;28;20020;-79
2023/01/05 08:38:49;;;;;;;5.57;2.08;;;;;;;9.07;100.00;99753.22;5095764;28;20023;-78
2023/01/05 08:41:17;;;;;;;2.97;1.75;;;;;;;9.07;100.00;99761.75;5096727;28;20025;-80
2023/01/05 08:43:49;;;;;;;2.47;1.30;;;;;;;9.14;100.00;99749.97;5096682;28;20056;-91
2023/01/05 08:46:15;;;;;;;6.57;1.48;;;;;;;9.22;100.00;99759.66;5096460;28;20054;-90
2023/01/05 08:48:49;;;;;;;3.65;2.30;;;;;;;9.37;100.00;99747.41;5096826;28;20115;-88
2023/01/05 08:51:15;;;;;;;7.88;1.25;;;;;;;9.33;100.00;99747.63;5096511;28;20116;-88
2023/01/05 08:53:41;;;;;;;5.10;2.30;;;;;;;9.45;100.00;99754.22;5096854;28;20446;-89
2023/01/05 08:56:09;;;;;;;8.00;2.00;;;;;;;9.33;100.00;99738.28;5097924;28;20062;-87
2023/01/05 08:58:37;;;;;;;9.18;2.20;;;;;;;9.38;100.00;99757.53;5097706;28;20107;-86
2023/01/05 09:01:12;;;;;;;6.07;1.63;;;;;;;9.44;100.00;99758.38;5062685;28;20384;-83
2023/01/05 09:03:38;;;;;;;8.52;1.90;;;;;;;9.45;100.00;99754.22;5097173;28;20085;-84
2023/01/05 09:06:08;;;;;;;5.75;1.60;;;;;;;9.29;100.00;99743.41;5097291;28;20511;-78
2023/01/05 09:08:34;;;;;;;8.50;2.00;;;;;;;9.51;100.00;99760.81;5096262;28;20051;-91
2023/01/05 09:11:13;;;;;;;3.90;1.23;;;;;;;9.57;100.00;99753.09;5096184;28;20064;-78
2023/01/05 09:13:40;;;;;;;6.28;1.38;;;;;;;9.63;100.00;99762.53;5096930;28;20381;-78
2023/01/05 09:16:20;;;;;;;3.72;1.30;;;;;;;9.74;100.00;99753.34;5095626;28;20036;-78
2023/01/05 09:18:46;;;;;;;5.45;1.70;;;;;;;9.81;100.00;99765.09;5096913;28;20032;-78
2023/01/05 09:21:13;;;;;;;7.18;1.70;;;;;;;9.74;100.00;99754.13;5096650;28;20361;-80
2023/01/05 09:23:39;;;;;;;6.20;1.90;;;;;;;9.77;100.00;99758.03;5096477;28;20035;-86
2023/01/05 09:26:06;;;;;;;4.10;1.45;;;;;;;9.76;100.00;99762.97;5061932;28;20062;-86
2023/01/05 09:28:34;;;;;;;6.15;1.20;;;;;;;9.76;100.00;99762.97;5096866;28;20027;-86
2023/01/05 09:31:08;;;;;;;3.65;2.00;;;;;;;9.78;100.00;99760.41;5095733;28;20039;-87
2023/01/05 09:33:35;;;;;;;4.97;1.60;;;;;;;9.66;100.00;99755.81;5095795;28;20038;-87
2023/01/05 09:36:09;;;;;;;7.68;1.40;;;;;;;9.61;100.00;99747.97;5078455;28;20040;-88
2023/01/05 09:38:35;;;;;;;2.65;1.70;;;;;;;9.51;100.00;99752.25;5095971;28;20054;-87
2023/01/05 09:41:22;;;;;;;6.55;1.33;;;;;;;9.58;100.00;99771.78;5095649;28;20055;-88
2023/01/05 09:43:51;;;;;;;4.05;1.27;;;;;;;9.46;100.00;99772.91;5095930;28;20381;-86
2023/01/05 09:46:20;;;;;;;3.75;1.50;;;;;;;9.32;100.00;99780.25;5082698;28;20047;-85
2023/01/05 09:48:48;;;;;;;4.63;1.60;;;;;;;9.24;100.00;99790.53;5119166;28;20040;-84
2023/01/05 09:51:14;;;;;;;8.80;2.33;;;;;;;9.22;100.00;99798.78;5115008;28;20043;-77
2023/01/05 09:53:41;;;;;;;4.10;1.23;;;;;;;9.24;100.00;99796.22;5100209;28;20130;-82
2023/01/05 09:56:18;;;;;;;5.63;1.50;;;;;;;9.27;100.00;99807.41;5081464;28;20050;-83
2023/01/05 09:59:15;;;;;;;2.70;1.30;;;;;;;9.27;100.00;99810.25;5097326;28;20070;-86
2023/01/05 10:01:47;;;;;;;3.13;1.33;;;;;;;9.42;100.00;99800.88;5095864;28;20468;-85
2023/01/05 10:04:19;;;;;;;3.15;1.60;;;;;;;9.60;100.00;99803.44;5097311;28;20038;-84
2023/01/05 10:07:03;;;;;;;7.85;1.70;;;;;;;9.77;100.00;99798.78;5097212;28;20024;-84
2023/01/05 10:09:34;;;;;;;6.43;1.60;;;;;;;9.78;100.00;99777.53;5095508;28;20118;-84
2023/01/05 10:15:45;;;;;;;8.13;1.55;;;;;;;9.79;100.00;99781.16;5080235;28;20039;-88
2023/01/05 10:18:21;;;;;;;5.38;1.50;;;;;;;9.83;100.00;99773.16;5097548;28;20051;-85
2023/01/05 10:21:15;;;;;;;13.63;2.80;;;;;;;9.76;100.00;99774.38;5095808;28;20184;-82
2023/01/05 10:23:45;;;;;;;5.38;1.63;;;;;;;9.84;100.00;99775.50;5095780;28;20432;-86
2023/01/05 10:26:46;;;;;;;7.03;1.50;;;;;;;9.85;100.00;99742.03;5097221;28;20066;-83
2023/01/05 10:29:15;;;;;;;4.63;1.67;;;;;;;10.04;100.00;99763.28;5098264;28;20102;-80
2023/01/05 10:32:27;;;;;;;5.53;1.55;;;;;;;10.15;100.00;99746.25;5078100;28;20077;-84
2023/01/05 10:35:21;;;;;;;3.78;1.50;;;;;;;10.35;100.00;99745.41;5093640;28;20036;-81
2023/01/05 10:37:57;;;;;;;5.70;1.50;;;;;;;10.56;100.00;99752.63;5097826;28;20020;-81
2023/01/05 10:40:34;;;;;;;2.50;1.70;;;;;;;10.70;100.00;99734.56;5096168;28;20031;-79
2023/01/05 10:43:20;;;;;;;4.07;1.35;;;;;;;10.81;100.00;99739.56;5097218;28;20024;-77
2023/01/05 10:45:47;;;;;;;6.95;2.25;;;;;;;10.77;100.00;99734.09;5094742;28;20040;-76
2023/01/05 10:48:18;;;;;;;6.13;1.42;;;;;;;10.71;100.00;99723.91;5095865;28;20488;-73
2023/01/05 10:50:45;;;;;;;4.13;1.40;;;;;;;10.67;100.00;99754.81;5094308;28;20059;-77
2023/01/05 10:53:20;;;;;;;7.25;1.50;;;;;;;10.70;100.00;99782.34;5094346;28;20098;-76
2023/01/05 10:56:11;;;;;;;25.08;2.33;;;;;;;10.52;100.00;99826.34;5077162;28;20032;-78
2023/01/05 10:58:40;;;;;;;8.50;1.37;;;;;;;9.79;100.00;99819.03;5095736;28;20028;-77
2023/01/05 11:01:27;;;;;;;5.00;1.00;;;;;;;8.60;100.00;99847.50;5093388;28;20109;-82
2023/01/05 11:13:57;;;;;;;2.17;0.80;;;;;;;6.23;100.00;99843.13;5091145;27;20354;-81
2023/01/05 11:16:31;;;;;;;8.23;1.30;;;;;;;6.20;100.00;99869.59;5123894;28;20036;-74
2023/01/05 11:19:13;;;;;;;2.30;1.45;;;;;;;6.31;100.00;99861.41;5090416;28;20032;-73
2023/01/05 11:21:44;;;;;;;4.18;0.95;;;;;;;6.47;100.00;99861.09;5091066;28;20035;-73
